createdAt,value
2023-01-28T00:00:52.845Z,100467.25
2023-01-28T00:01:52.515Z,100469.53
2023-01-28T00:02:52.675Z,100473.52
2023-01-28T00:03:52.659Z,100467.67
2023-01-28T00:04:52.575Z,100464.82
2023-01-28T00:05:52.602Z,100471.12
2023-01-28T00:06:52.620Z,100461.56
2023-01-28T00:07:52.836Z,100462.97
2023-01-28T00:08:52.648Z,100460.84
2023-01-28T00:09:52.683Z,100455.95
2023-01-28T00:10:53.042Z,100455.14
2023-01-28T00:11:52.719Z,100451.15
2023-01-28T00:12:52.790Z,100446.22
2023-01-28T00:13:53.305Z,100445.55
2023-01-28T00:14:52.715Z,100446.12
2023-01-28T00:15:56.841Z,100441.82
2023-01-28T00:16:53.105Z,100440.72
2023-01-28T00:17:54.478Z,100435.39
2023-01-28T00:18:53.568Z,100440.16
2023-01-28T00:19:53.160Z,100438
2023-01-28T00:20:57.105Z,100437.65
2023-01-28T00:21:53.323Z,100437.88
2023-01-28T00:22:53.333Z,100436.72
2023-01-28T00:23:54.223Z,100434.66
2023-01-28T00:24:53.350Z,100437.79
2023-01-28T00:25:53.377Z,100437.17
2023-01-28T00:26:53.424Z,100436.35
2023-01-28T00:27:53.415Z,100437.06
2023-01-28T00:28:53.454Z,100431.89
2023-01-28T00:29:53.427Z,100438.05
2023-01-28T00:30:53.749Z,100430.96
2023-01-28T00:31:53.587Z,100428.74
2023-01-28T00:32:54.094Z,100431.73
2023-01-28T00:33:54.436Z,100431.69
2023-01-28T00:34:53.535Z,100432.05
2023-01-28T00:36:56.273Z,100433.69
2023-01-28T00:37:56.101Z,100435.9
2023-01-28T00:38:57.436Z,100434.58
2023-01-28T00:39:56.142Z,100433.11
2023-01-28T00:40:56.186Z,100437.64
2023-01-28T00:41:56.192Z,100436.38
2023-01-28T00:42:56.196Z,100438.84
2023-01-28T00:43:56.194Z,100440.38
2023-01-28T00:44:56.367Z,100437.38
2023-01-28T00:45:56.269Z,100441.39
2023-01-28T00:46:56.276Z,100439.22
2023-01-28T00:47:56.235Z,100434.47
2023-01-28T00:48:56.285Z,100431.78
2023-01-28T00:49:56.360Z,100435.8
2023-01-28T00:50:56.320Z,100430.3
2023-01-28T00:51:56.366Z,100434.92
2023-01-28T00:52:56.335Z,100426.56
2023-01-28T00:53:56.423Z,100432.11
2023-01-28T00:54:56.399Z,100428.61
2023-01-28T00:55:56.677Z,100428.23
2023-01-28T00:56:56.388Z,100426.44
2023-01-28T00:57:56.408Z,100425.41
2023-01-28T00:58:56.424Z,100422.65
2023-01-28T00:59:56.489Z,100421.58
2023-01-28T01:00:56.495Z,100422.75
2023-01-28T01:01:56.457Z,100416.73
2023-01-28T01:02:56.523Z,100418.08
2023-01-28T01:03:56.631Z,100415.47
2023-01-28T01:04:56.517Z,100415.02
2023-01-28T01:05:57.393Z,100412.95
2023-01-28T01:06:56.550Z,100415.12
2023-01-28T01:07:56.559Z,100415.59
2023-01-28T01:08:56.609Z,100409.05
2023-01-28T01:09:56.609Z,100410.28
2023-01-28T01:10:58.670Z,100407.11
2023-01-28T01:11:56.655Z,100412.27
2023-01-28T01:12:56.660Z,100410.86
2023-01-28T01:13:57.661Z,100414.54
2023-01-28T01:14:57.491Z,100413.71
2023-01-28T01:17:00.176Z,100410.79
2023-01-28T01:18:00.257Z,100417.17
2023-01-28T01:19:00.272Z,100416.17
2023-01-28T01:20:00.232Z,100414.82
2023-01-28T01:21:00.573Z,100414.07
2023-01-28T01:22:00.285Z,100418.1
2023-01-28T01:23:00.299Z,100416.9
2023-01-28T01:24:00.339Z,100410.92
2023-01-28T01:25:00.455Z,100405.23
2023-01-28T01:26:00.332Z,100403.3
2023-01-28T01:27:00.523Z,100403.69
2023-01-28T01:28:00.384Z,100404.8
2023-01-28T01:29:00.400Z,100401.41
2023-01-28T01:30:00.390Z,100403.88
2023-01-28T01:31:01.363Z,100403.65
2023-01-28T01:32:00.500Z,100400.98
2023-01-28T01:33:00.423Z,100402.56
2023-01-28T01:34:00.431Z,100400.98
2023-01-28T01:35:00.638Z,100393.77
2023-01-28T01:36:00.477Z,100387.41
2023-01-28T01:37:00.622Z,100389.8
2023-01-28T01:38:00.520Z,100390.58
2023-01-28T01:39:00.544Z,100393.34
2023-01-28T01:40:00.784Z,100389.01
2023-01-28T01:41:01.331Z,100389.19
2023-01-28T01:42:00.611Z,100385.7
2023-01-28T01:43:00.705Z,100382.62
2023-01-28T01:44:01.819Z,100383.23
2023-01-28T01:46:05.575Z,100387.11
2023-01-28T01:47:05.326Z,100388.63
2023-01-28T01:48:10.142Z,100391.33
2023-01-28T01:49:13.117Z,100389.43
2023-01-28T01:51:14.481Z,100386.91
2023-01-28T01:52:15.240Z,100385.74
2023-01-28T01:53:18.050Z,100383.48
2023-01-28T01:54:15.344Z,100385.36
2023-01-28T01:55:18.473Z,100382
2023-01-28T01:56:17.176Z,100378.31
2023-01-28T01:57:19.880Z,100381.06
2023-01-28T01:58:18.503Z,100377.05
2023-01-28T01:59:20.166Z,100376.7
2023-01-28T02:00:17.234Z,100373.5
2023-01-28T02:01:19.224Z,100369.44
2023-01-28T02:02:17.447Z,100370.44
2023-01-28T02:03:19.424Z,100374.3
2023-01-28T02:04:22.240Z,100375.67
2023-01-28T02:05:20.035Z,100374.99
2023-01-28T02:06:19.588Z,100372.03
2023-01-28T02:07:19.443Z,100372.02
2023-01-28T02:08:18.960Z,100373.28
2023-01-28T02:09:23.145Z,100371.1
2023-01-28T02:10:20.772Z,100367.03
2023-01-28T02:11:19.933Z,100365.56
2023-01-28T02:13:22.664Z,100362.83
2023-01-28T02:14:30.508Z,100364.56
2023-01-28T02:15:24.260Z,100364.27
2023-01-28T02:16:23.112Z,100360.94
2023-01-28T02:17:22.528Z,100363.86
2023-01-28T02:18:22.596Z,100364.3
2023-01-28T02:19:24.625Z,100359.51
2023-01-28T02:32:55.705Z,100359.31
2023-01-28T02:35:10.777Z,100357.42
2023-01-28T02:36:10.987Z,100361.5
2023-01-28T02:37:07.193Z,100362.05
2023-01-28T02:38:08.360Z,100362.36
2023-01-28T02:39:11.485Z,100360.14
2023-01-28T02:40:13.808Z,100360.53
2023-01-28T02:43:15.025Z,100351.12
2023-01-28T02:44:14.539Z,100352.41
2023-01-28T02:46:21.503Z,100349.3
2023-01-28T02:47:17.801Z,100353.97
2023-01-28T02:48:19.489Z,100353.41
2023-01-28T02:49:19.063Z,100354.92
2023-01-28T02:50:20.206Z,100354.84
2023-01-28T02:52:29.921Z,100357.32
2023-01-28T02:54:37.588Z,100354.6
2023-01-28T02:58:41.764Z,100353.56
2023-01-28T03:01:44.593Z,100356.3
2023-01-28T03:05:59.732Z,100357.79
2023-01-28T03:06:54.115Z,100353.06
2023-01-28T03:07:51.941Z,100353.8
2023-01-28T03:08:53.623Z,100353.78
2023-01-28T03:09:52.260Z,100350.34
2023-01-28T03:10:51.992Z,100352.76
2023-01-28T03:11:56.505Z,100350.05
2023-01-28T03:12:54.753Z,100349.66
2023-01-28T03:13:53.213Z,100350.71
2023-01-28T03:14:57.628Z,100347.2
2023-01-28T03:15:54.446Z,100347.75
2023-01-28T03:16:57.398Z,100344.19
2023-01-28T03:17:58.582Z,100344.16
2023-01-28T03:18:55.274Z,100345.73
2023-01-28T03:19:55.235Z,100346.63
2023-01-28T03:21:08.642Z,100344.02
2023-01-28T03:21:56.647Z,100347.05
2023-01-28T03:22:57.009Z,100344.38
2023-01-28T03:24:05.254Z,100341.83
2023-01-28T03:24:58.419Z,100343.06
2023-01-28T03:25:59.127Z,100344.95
2023-01-28T03:27:02.556Z,100340.3
2023-01-28T03:28:02.203Z,100341.88
2023-01-28T03:29:03.145Z,100343.77
2023-01-28T03:30:01.332Z,100337.05
2023-01-28T03:31:05.417Z,100336.62
2023-01-28T03:32:02.392Z,100334.09
2023-01-28T03:33:03.935Z,100338.08
2023-01-28T03:34:02.894Z,100337.84
2023-01-28T03:35:02.266Z,100339.84
2023-01-28T03:36:02.279Z,100342.41
2023-01-28T03:37:02.286Z,100346.46
2023-01-28T03:38:03.572Z,100343.8
2023-01-28T03:39:02.437Z,100347.09
2023-01-28T03:40:04.348Z,100349.47
2023-01-28T03:41:03.351Z,100346.12
2023-01-28T03:42:04.658Z,100348.36
2023-01-28T03:43:02.258Z,100346.12
2023-01-28T03:44:02.497Z,100352.65
2023-01-28T03:45:02.560Z,100348.8
2023-01-28T03:46:02.972Z,100357.5
2023-01-28T03:47:02.339Z,100350.3
2023-01-28T03:48:02.365Z,100356.53
2023-01-28T03:49:02.417Z,100351.08
2023-01-28T03:50:02.418Z,100353.91
2023-01-28T03:51:02.486Z,100356.47
2023-01-28T03:52:02.396Z,100360.22
2023-01-28T03:53:02.533Z,100358.72
2023-01-28T03:54:02.426Z,100358.27
2023-01-28T03:55:02.533Z,100353.25
2023-01-28T03:56:02.611Z,100357.27
2023-01-28T03:57:02.710Z,100357.41
2023-01-28T03:58:07.845Z,100353.88
2023-01-28T03:59:04.616Z,100351.23
2023-01-28T04:00:05.222Z,100351.69
2023-01-28T04:01:04.639Z,100349.8
2023-01-28T04:02:04.677Z,100352.83
2023-01-28T04:03:05.240Z,100354.61
2023-01-28T04:04:05.217Z,100352.91
2023-01-28T04:05:05.892Z,100358.2
2023-01-28T04:06:06.500Z,100353.47
2023-01-28T04:07:07.408Z,100356.59
2023-01-28T04:08:05.313Z,100353.92
2023-01-28T04:09:05.363Z,100355.69
2023-01-28T04:10:05.828Z,100358.86
2023-01-28T04:11:05.343Z,100361.09
2023-01-28T04:12:05.728Z,100364.48
2023-01-28T04:13:07.881Z,100364.01
2023-01-28T04:14:05.431Z,100362.05
2023-01-28T04:15:06.210Z,100363.38
2023-01-28T04:16:05.699Z,100359.56
2023-01-28T04:17:05.532Z,100363.42
2023-01-28T04:18:05.533Z,100361.8
2023-01-28T04:19:05.547Z,100360.27
2023-01-28T04:20:06.302Z,100360.58
2023-01-28T04:21:05.863Z,100358.18
2023-01-28T04:22:06.783Z,100357.24
2023-01-28T04:23:06.317Z,100352.02
2023-01-28T04:24:05.919Z,100358.5
2023-01-28T04:25:06.150Z,100353.52
2023-01-28T04:26:05.710Z,100356.06
2023-01-28T04:27:05.608Z,100352.39
2023-01-28T04:28:05.628Z,100353.38
2023-01-28T04:29:05.799Z,100353.85
2023-01-28T04:30:06.291Z,100354.17
2023-01-28T04:31:05.805Z,100356.34
2023-01-28T04:32:05.704Z,100354.3
2023-01-28T04:33:05.676Z,100352.45
2023-01-28T04:34:05.839Z,100357.2
2023-01-28T04:35:06.167Z,100357.43
2023-01-28T04:36:05.837Z,100354.11
2023-01-28T04:37:05.764Z,100349.34
2023-01-28T04:38:05.870Z,100346.47
2023-01-28T04:39:05.768Z,100350.45
2023-01-28T04:40:06.339Z,100347.39
2023-01-28T04:41:05.885Z,100345.71
2023-01-28T04:42:05.867Z,100344.79
2023-01-28T04:43:05.900Z,100349.64
2023-01-28T04:44:06.007Z,100344.89
2023-01-28T04:45:06.503Z,100347.41
2023-01-28T04:46:06.144Z,100342.69
2023-01-28T04:47:05.971Z,100344
2023-01-28T04:48:06.233Z,100343.79
2023-01-28T04:49:06.003Z,100337.92
2023-01-28T04:50:06.253Z,100341.22
2023-01-28T04:51:06.213Z,100335.3
2023-01-28T04:52:06.045Z,100336.52
2023-01-28T04:53:06.047Z,100332.45
2023-01-28T04:54:06.062Z,100335.93
2023-01-28T04:55:06.505Z,100336.98
2023-01-28T04:56:06.207Z,100334.77
2023-01-28T04:57:06.120Z,100332.3
2023-01-28T04:58:06.073Z,100330.75
2023-01-28T04:59:06.304Z,100329.86
2023-01-28T05:00:06.640Z,100322.14
2023-01-28T05:01:06.183Z,100329.33
2023-01-28T05:02:06.347Z,100327.09
2023-01-28T05:03:06.165Z,100323.97
2023-01-28T05:04:06.229Z,100332.91
2023-01-28T05:05:06.463Z,100323.41
2023-01-28T05:06:06.428Z,100323.34
2023-01-28T05:07:06.289Z,100326.03
2023-01-28T05:08:06.247Z,100321.12
2023-01-28T05:09:06.424Z,100325.97
2023-01-28T05:10:06.502Z,100322.27
2023-01-28T05:11:06.292Z,100325.78
2023-01-28T05:12:06.432Z,100321.78
2023-01-28T05:13:06.430Z,100322.63
2023-01-28T05:14:06.547Z,100329.58
2023-01-28T05:15:07.039Z,100324.45
2023-01-28T05:16:06.789Z,100318.52
2023-01-28T05:17:06.734Z,100324.64
2023-01-28T05:18:06.442Z,100319.19
2023-01-28T05:19:06.505Z,100324.52
2023-01-28T05:20:06.858Z,100323.29
2023-01-28T05:20:12.032Z,100323.29
2023-01-28T05:20:16.143Z,100323.29
2023-01-28T05:20:21.445Z,100321.67
2023-01-28T05:20:26.014Z,100321.67
2023-01-28T05:20:31.018Z,100321.67
2023-01-28T05:20:36.432Z,100320.78
2023-01-28T05:21:36.500Z,100321.92
2023-01-28T05:22:36.546Z,100321.14
2023-01-28T05:23:36.504Z,100321.52
2023-01-28T05:24:36.493Z,100319.57
2023-01-28T05:25:36.530Z,100314.59
2023-01-28T05:26:36.558Z,100313.23
2023-01-28T05:27:36.610Z,100314.66
2023-01-28T05:28:36.764Z,100320.73
2023-01-28T05:29:36.550Z,100314.07
2023-01-28T05:30:37.699Z,100313.91
2023-01-28T05:31:36.660Z,100312.14
2023-01-28T05:32:36.727Z,100306.79
2023-01-28T05:33:36.775Z,100309.64
2023-01-28T05:34:36.685Z,100306.39
2023-01-28T05:35:36.665Z,100306.72
2023-01-28T05:36:36.693Z,100309.41
2023-01-28T05:37:36.761Z,100304.25
2023-01-28T05:38:37.023Z,100304.22
2023-01-28T05:39:36.752Z,100305.58
2023-01-28T05:40:36.794Z,100310.13
2023-01-28T05:41:36.828Z,100303.37
2023-01-28T05:42:36.850Z,100303.72
2023-01-28T05:43:36.835Z,100302.15
2023-01-28T05:44:36.941Z,100302.8
2023-01-28T05:45:36.947Z,100302.89
2023-01-28T05:46:36.899Z,100303.32
2023-01-28T05:47:36.940Z,100308.58
2023-01-28T05:48:36.981Z,100304.7
2023-01-28T05:49:36.985Z,100309.36
2023-01-28T05:50:36.934Z,100308.91
2023-01-28T05:51:36.968Z,100306.41
2023-01-28T05:52:37.043Z,100303.98
2023-01-28T05:53:37.079Z,100306.05
2023-01-28T05:54:37.008Z,100309.01
2023-01-28T05:55:37.060Z,100303.98
2023-01-28T05:56:37.092Z,100307.02
2023-01-28T05:57:37.181Z,100305.61
2023-01-28T05:58:37.169Z,100307.89
2023-01-28T05:59:38.070Z,100307.47
2023-01-28T06:00:37.167Z,100308.47
2023-01-28T06:01:37.193Z,100308.89
2023-01-28T06:02:37.227Z,100308.79
2023-01-28T06:03:37.220Z,100307.48
2023-01-28T06:04:37.210Z,100313.3
2023-01-28T06:05:37.272Z,100313.48
2023-01-28T06:06:37.218Z,100315.02
2023-01-28T06:07:37.225Z,100316.38
2023-01-28T06:08:37.337Z,100314
2023-01-28T06:09:37.266Z,100315.94
2023-01-28T06:10:37.327Z,100311.55
2023-01-28T06:11:37.337Z,100311.88
2023-01-28T06:12:37.391Z,100307.92
2023-01-28T06:13:37.342Z,100312
2023-01-28T06:14:37.396Z,100304.02
2023-01-28T06:15:37.374Z,100303.95
2023-01-28T06:16:37.367Z,100304.98
2023-01-28T06:17:37.465Z,100306.46
2023-01-28T06:18:37.410Z,100311.94
2023-01-28T06:19:37.630Z,100314.27
2023-01-28T06:20:37.568Z,100308.98
2023-01-28T06:21:37.498Z,100309.27
2023-01-28T06:22:37.483Z,100306.52
2023-01-28T06:23:37.498Z,100302.02
2023-01-28T06:24:37.500Z,100299.31
2023-01-28T06:25:37.633Z,100298.25
2023-01-28T06:26:37.562Z,100295.42
2023-01-28T06:27:37.535Z,100294.28
2023-01-28T06:28:37.563Z,100295.75
2023-01-28T06:29:37.628Z,100291.08
2023-01-28T06:30:37.674Z,100292.98
2023-01-28T06:31:37.736Z,100287.99
2023-01-28T06:32:37.648Z,100296.98
2023-01-28T06:33:37.623Z,100293.63
2023-01-28T06:34:37.698Z,100294.15
2023-01-28T06:35:37.671Z,100295.38
2023-01-28T06:36:37.733Z,100290.41
2023-01-28T06:37:37.780Z,100291.08
2023-01-28T06:38:37.877Z,100291.33
2023-01-28T06:39:37.746Z,100291.45
2023-01-28T06:40:38.039Z,100292.91
2023-01-28T06:41:37.843Z,100290.12
2023-01-28T06:42:37.913Z,100290.64
2023-01-28T06:43:37.870Z,100288.64
2023-01-28T06:44:37.881Z,100292.67
2023-01-28T06:45:37.894Z,100291.48
2023-01-28T06:46:38.005Z,100285.47
2023-01-28T06:47:40.697Z,100284.8
2023-01-28T06:48:37.896Z,100283.76
2023-01-28T06:49:37.947Z,100277.62
2023-01-28T06:50:37.913Z,100280.89
2023-01-28T06:51:38.199Z,100282.94
2023-01-28T06:52:38.059Z,100281.39
2023-01-28T06:53:38.001Z,100286.27
2023-01-28T06:54:38.025Z,100284.84
2023-01-28T06:55:37.960Z,100281.92
2023-01-28T06:56:37.985Z,100282.95
2023-01-28T06:57:38.657Z,100277.19
2023-01-28T06:58:38.073Z,100277.22
2023-01-28T06:59:38.091Z,100279.39
2023-01-28T07:00:38.107Z,100275.03
2023-01-28T07:01:38.175Z,100275.5
2023-01-28T07:02:38.592Z,100273.66
2023-01-28T07:03:38.150Z,100275.02
2023-01-28T07:04:38.084Z,100275.2
2023-01-28T07:05:38.100Z,100277.42
2023-01-28T07:06:38.117Z,100272.44
2023-01-28T07:07:40.758Z,100273.2
2023-01-28T07:08:38.550Z,100273.06
2023-01-28T07:09:38.445Z,100271.39
2023-01-28T07:10:38.466Z,100271.31
2023-01-28T07:11:38.419Z,100276.59
2023-01-28T07:12:38.647Z,100271.66
2023-01-28T07:13:38.517Z,100274.81
2023-01-28T07:14:38.490Z,100274.17
2023-01-28T07:15:38.507Z,100274.36
2023-01-28T07:16:38.550Z,100271.25
2023-01-28T07:17:44.541Z,100275.27
2023-01-28T07:18:41.244Z,100279.53
2023-01-28T07:19:41.225Z,100282.12
2023-01-28T07:20:41.187Z,100283.91
2023-01-28T07:21:41.222Z,100284.44
2023-01-28T07:22:42.317Z,100281.41
2023-01-28T07:23:41.559Z,100277.23
2023-01-28T07:24:41.275Z,100281.14
2023-01-28T07:25:41.433Z,100275.78
2023-01-28T07:26:41.310Z,100276.8
2023-01-28T07:27:51.680Z,100275.2
2023-01-28T07:28:43.356Z,100277.45
2023-01-28T07:29:43.311Z,100271.84
2023-01-28T07:30:43.332Z,100272.41
2023-01-28T07:31:43.506Z,100275.4
2023-01-28T07:32:43.502Z,100274.84
2023-01-28T07:33:43.451Z,100274.71
2023-01-28T07:34:43.504Z,100270.7
2023-01-28T07:35:43.927Z,100272.5
2023-01-28T07:36:43.412Z,100275.11
2023-01-28T07:37:50.395Z,100276.73
2023-01-28T07:38:47.190Z,100278.64
2023-01-28T07:39:47.239Z,100282.77
2023-01-28T07:40:47.160Z,100282.02
2023-01-28T07:41:47.072Z,100282.95
2023-01-28T07:42:47.248Z,100281.88
2023-01-28T07:43:47.207Z,100284.39
2023-01-28T07:44:47.161Z,100280.63
2023-01-28T07:45:48.620Z,100284.03
2023-01-28T07:46:47.188Z,100280.54
2023-01-28T07:47:53.628Z,100277.34
2023-01-28T07:48:50.314Z,100276.84
2023-01-28T07:49:50.301Z,100276.77
2023-01-28T07:50:50.325Z,100278.49
2023-01-28T07:51:50.392Z,100283.58
2023-01-28T07:52:50.357Z,100277.12
2023-01-28T07:53:50.435Z,100284.22
2023-01-28T07:54:50.348Z,100273.23
2023-01-28T07:55:50.363Z,100273.91
2023-01-28T07:56:50.362Z,100275.26
2023-01-28T07:57:51.427Z,100282.89
2023-01-28T07:58:50.701Z,100272.14
2023-01-28T07:59:50.466Z,100274.12
2023-01-28T08:00:50.403Z,100276.24
2023-01-28T08:01:50.409Z,100274.69
2023-01-28T08:02:50.856Z,100274.63
2023-01-28T08:03:50.437Z,100272.62
2023-01-28T08:04:50.742Z,100270.06
2023-01-28T08:05:52.019Z,100269.02
2023-01-28T08:06:50.525Z,100269.24
2023-01-28T08:07:50.518Z,100267.33
2023-01-28T08:08:50.533Z,100264.2
2023-01-28T08:09:51.188Z,100266.49
2023-01-28T08:10:51.006Z,100262.3
2023-01-28T08:11:50.609Z,100270.23
2023-01-28T08:12:54.419Z,100269.44
2023-01-28T08:13:51.148Z,100269.66
2023-01-28T08:14:51.115Z,100272.19
2023-01-28T08:15:55.023Z,100268.66
2023-01-28T08:16:51.665Z,100266.65
2023-01-28T08:17:53.655Z,100264.3
2023-01-28T08:18:52.416Z,100266.54
2023-01-28T08:19:51.754Z,100260.04
2023-01-28T08:20:55.114Z,100263.27
2023-01-28T08:21:51.909Z,100258.74
2023-01-28T08:22:51.828Z,100255.8
2023-01-28T08:23:51.843Z,100265.51
2023-01-28T08:24:52.017Z,100262.31
2023-01-28T08:25:52.070Z,100258.38
2023-01-28T08:26:51.884Z,100256.47
2023-01-28T08:27:51.818Z,100257.98
2023-01-28T08:28:51.845Z,100251.47
2023-01-28T08:29:51.865Z,100253.95
2023-01-28T08:30:52.028Z,100252.14
2023-01-28T08:31:51.968Z,100252.3
2023-01-28T08:32:54.957Z,100254.59
2023-01-28T08:33:51.989Z,100253.06
2023-01-28T08:34:52.052Z,100254.17
2023-01-28T08:35:52.030Z,100256.7
2023-01-28T08:36:52.032Z,100257.61
2023-01-28T08:37:51.987Z,100255.92
2023-01-28T08:38:52.660Z,100255.91
2023-01-28T08:39:52.053Z,100250.42
2023-01-28T08:40:52.012Z,100247.01
2023-01-28T08:41:52.045Z,100247.09
2023-01-28T08:42:52.880Z,100245.39
2023-01-28T08:43:52.172Z,100245.29
2023-01-28T08:44:52.118Z,100245.56
2023-01-28T08:45:52.145Z,100245.78
2023-01-28T08:46:52.102Z,100245.82
2023-01-28T08:47:53.435Z,100247.76
2023-01-28T08:48:52.076Z,100244.77
2023-01-28T08:49:54.264Z,100247.77
2023-01-28T08:50:52.156Z,100243.52
2023-01-28T08:51:52.118Z,100244.27
2023-01-28T08:53:52.469Z,100244.41
2023-01-28T08:54:52.521Z,100242.59
2023-01-28T08:55:53.634Z,100240.44
2023-01-28T08:56:52.555Z,100243.27
2023-01-28T08:57:53.089Z,100241.77
2023-01-28T08:58:52.581Z,100239.33
2023-01-28T08:59:52.568Z,100237.55
2023-01-28T09:00:52.583Z,100231.53
2023-01-28T09:01:52.779Z,100231.61
2023-01-28T09:02:53.247Z,100225
2023-01-28T09:03:52.710Z,100224.53
2023-01-28T09:04:52.672Z,100226.09
2023-01-28T09:05:52.671Z,100228.88
2023-01-28T09:06:54.132Z,100227.98
2023-01-28T09:07:52.757Z,100228.2
2023-01-28T09:08:52.706Z,100231.12
2023-01-28T09:09:52.679Z,100224.53
2023-01-28T09:10:55.938Z,100228.04
2023-01-28T09:11:52.728Z,100221.19
2023-01-28T09:12:55.745Z,100214.55
2023-01-28T09:13:52.906Z,100216.59
2023-01-28T09:14:53.149Z,100216.42
2023-01-28T09:15:52.861Z,100219.22
2023-01-28T09:16:56.761Z,100215.19
2023-01-28T09:17:59.000Z,100214.19
2023-01-28T09:18:55.684Z,100215.62
2023-01-28T09:19:55.673Z,100213.89
2023-01-28T09:20:56.090Z,100210.03
2023-01-28T09:21:55.721Z,100206.86
2023-01-28T09:22:55.742Z,100211.06
2023-01-28T09:23:55.886Z,100206.33
2023-01-28T09:24:55.728Z,100202.54
2023-01-28T09:25:59.811Z,100205.76
2023-01-28T09:26:56.573Z,100204.52
2023-01-28T09:27:57.075Z,100204.11
2023-01-28T09:28:56.667Z,100200.32
2023-01-28T09:29:56.487Z,100197.89
2023-01-28T09:31:06.522Z,100193.51
2023-01-28T09:31:58.594Z,100193
2023-01-28T09:32:58.425Z,100193.27
2023-01-28T09:33:58.410Z,100191.52
2023-01-28T09:34:58.408Z,100192.45
2023-01-28T09:36:02.070Z,100184.08
2023-01-28T09:36:58.814Z,100188.95
2023-01-28T09:37:58.824Z,100192.69
2023-01-28T09:38:59.059Z,100189.99
2023-01-28T09:39:58.793Z,100196.7
2023-01-28T09:40:59.113Z,100192.56
2023-01-28T09:43:06.534Z,100194.11
2023-01-28T09:44:05.933Z,100186.23
2023-01-28T09:45:17.388Z,100181.31
2023-01-28T09:46:05.939Z,100178.66
2023-01-28T09:47:07.553Z,100171.88
2023-01-28T09:48:05.696Z,100172.39
2023-01-28T09:51:09.424Z,100169.88
2023-01-28T09:52:12.286Z,100170.88
2023-01-28T09:56:13.639Z,100164.86
2023-01-28T09:58:16.843Z,100160.22
2023-01-28T09:59:18.065Z,100159.06
2023-01-28T10:00:18.441Z,100161.47
2023-01-28T10:10:50.637Z,100143.03
2023-01-28T10:13:56.193Z,100137.72
2023-01-28T10:18:16.545Z,100130.5
2023-01-28T10:22:07.425Z,100132.23
2023-01-28T10:25:17.755Z,100128
2023-01-28T10:26:22.132Z,100133.66
2023-01-28T10:27:23.076Z,100127.16
2023-01-28T10:28:22.579Z,100133.18
2023-01-28T10:29:30.964Z,100132.25
2023-01-28T10:30:24.021Z,100133.2
2023-01-28T10:31:23.513Z,100125.38
2023-01-28T10:32:31.244Z,100122.18
2023-01-28T10:33:33.387Z,100126.62
2023-01-28T10:34:25.481Z,100116.39
2023-01-28T10:35:25.379Z,100119.59
2023-01-28T10:36:25.183Z,100110.55
2023-01-28T10:37:25.921Z,100109.18
2023-01-28T10:38:26.738Z,100106.05
2023-01-28T10:39:26.137Z,100103.32
2023-01-28T10:40:25.325Z,100102.55
2023-01-28T10:41:25.221Z,100103.52
2023-01-28T10:42:29.172Z,100095.91
2023-01-28T10:43:29.532Z,100094.36
2023-01-28T10:44:31.258Z,100093.57
2023-01-28T10:45:34.660Z,100092.64
2023-01-28T10:46:36.330Z,100091.1
2023-01-28T10:47:38.571Z,100086.62
2023-01-28T10:48:38.420Z,100092.31
2023-01-28T10:49:39.257Z,100087.23
2023-01-28T10:50:35.981Z,100093.51
2023-01-28T10:51:37.549Z,100088.48
2023-01-28T10:52:35.966Z,100089.63
2023-01-28T10:53:40.615Z,100088.73
2023-01-28T10:54:37.289Z,100086.46
2023-01-28T10:56:42.933Z,100090.22
2023-01-28T10:57:42.234Z,100085.5
2023-01-28T10:58:50.350Z,100083.08
2023-01-28T10:59:45.072Z,100082.94
2023-01-28T11:00:42.051Z,100075.52
2023-01-28T11:01:45.205Z,100074.2
2023-01-28T11:02:44.203Z,100071.27
2023-01-28T11:03:53.126Z,100071.81
2023-01-28T11:04:44.860Z,100065.03
2023-01-28T11:05:54.298Z,100063.99
2023-01-28T11:06:59.331Z,100067.34
2023-01-28T11:07:46.383Z,100072.86
2023-01-28T11:08:45.997Z,100069.84
2023-01-28T11:09:50.229Z,100068.37
2023-01-28T11:10:47.442Z,100071.02
2023-01-28T11:11:46.844Z,100071
2023-01-28T11:12:54.664Z,100067.11
2023-01-28T11:13:52.174Z,100068.41
2023-01-28T11:14:52.532Z,100068.77
2023-01-28T11:15:53.082Z,100066.64
2023-01-28T11:16:52.190Z,100066.3
2023-01-28T11:17:55.727Z,100061.65
2023-01-28T11:18:53.953Z,100059.53
2023-01-28T11:19:55.897Z,100053.05
2023-01-28T11:20:55.397Z,100046.48
2023-01-28T11:21:54.100Z,100051.59
2023-01-28T11:22:52.843Z,100049.03
2023-01-28T11:23:55.988Z,100044.7
2023-01-28T11:24:54.629Z,100044.42
2023-01-28T11:26:03.944Z,100039.19
2023-01-28T11:26:56.858Z,100042.34
2023-01-28T11:27:58.310Z,100035.44
2023-01-28T11:28:55.952Z,100041.48
2023-01-28T11:29:59.871Z,100038.59
2023-01-28T11:30:58.365Z,100036.75
2023-01-28T11:31:57.159Z,100040.66
2023-01-28T11:32:58.315Z,100033.28
2023-01-28T11:33:58.297Z,100029.88
2023-01-28T11:34:57.543Z,100028.77
2023-01-28T11:37:02.931Z,100028.91
2023-01-28T11:38:14.769Z,100026.62
2023-01-28T11:39:20.869Z,100025.19
2023-01-28T11:40:20.540Z,100030.99
2023-01-28T11:41:14.674Z,100026.34
2023-01-28T11:42:21.339Z,100033.55
2023-01-28T11:43:12.962Z,100037.74
2023-01-28T11:44:26.267Z,100036.28
2023-01-28T11:45:19.574Z,100030.78
2023-01-28T11:50:34.897Z,100026.79
2023-01-28T11:51:45.495Z,100023.48
2023-01-28T11:57:50.915Z,100001.17
2023-01-28T11:58:51.753Z,100000.03
2023-01-28T12:00:56.574Z,99996.08
2023-01-28T12:10:19.939Z,99981.05
2023-01-28T12:41:43.757Z,99938.78
2023-01-28T12:42:54.518Z,99938.91
2023-01-28T12:43:51.995Z,99933.45
2023-01-28T12:44:52.912Z,99936.99
2023-01-28T12:45:51.621Z,99935.52
2023-01-28T12:46:51.891Z,99938.89
2023-01-28T12:47:56.585Z,99932.73
2023-01-28T12:48:57.981Z,99935.25
2023-01-28T12:49:57.656Z,99935.78
2023-01-28T12:51:07.180Z,99926.54
2023-01-28T12:52:05.020Z,99921.67
2023-01-28T12:53:09.317Z,99917.25
2023-01-28T12:54:19.699Z,99918.19
2023-01-28T12:55:17.736Z,99915.74
2023-01-28T12:57:14.662Z,99922
2023-01-28T12:58:16.933Z,99923.13
2023-01-28T13:01:20.217Z,99911.25
2023-01-28T13:02:21.445Z,99911.01
2023-01-28T13:05:27.149Z,99904.64
2023-01-28T13:08:30.352Z,99909.55
2023-01-28T13:09:31.095Z,99912.89
2023-01-28T13:10:36.226Z,99903.99
2023-01-28T13:11:34.543Z,99901.84
2023-01-28T13:12:33.167Z,99902.76
2023-01-28T13:13:34.987Z,99901.16
2023-01-28T13:14:33.655Z,99897.4
2023-01-28T13:15:37.076Z,99899.89
2023-01-28T13:16:37.804Z,99898.41
2023-01-28T13:17:34.818Z,99895.35
2023-01-28T13:18:45.153Z,99894.47
2023-01-28T13:19:38.686Z,99896.02
2023-01-28T13:20:47.764Z,99894.69
2023-01-28T13:21:48.739Z,99902.11
2023-01-28T13:22:43.868Z,99897.69
2023-01-28T13:23:49.728Z,99903.64
2023-01-28T13:24:41.497Z,99899.12